sensor_id;sensor_type;location;lat;lon;timestamp;P1;durP1;ratioP1;P2;durP2;ratioP2
11847;SDS011;5983;49.966;8.052;2023-03-03T00:00:48;6.87;;;4.00;;
11847;SDS011;5983;49.966;8.052;2023-03-03T00:03:16;6.63;;;4.30;;
11847;SDS011;5983;49.966;8.052;2023-03-03T00:05:46;7.40;;;4.90;;
11847;SDS011;5983;49.966;8.052;2023-03-03T00:08:13;8.63;;;4.30;;
11847;SDS011;5983;49.966;8.052;2023-03-03T00:10:41;6.63;;;4.17;;
11847;SDS011;5983;49.966;8.052;2023-03-03T00:13:11;5.90;;;3.80;;
11847;SDS011;5983;49.966;8.052;2023-03-03T00:15:43;7.57;;;4.40;;
11847;SDS011;5983;49.966;8.052;2023-03-03T00:18:19;9.07;;;4.00;;
11847;SDS011;5983;49.966;8.052;2023-03-03T00:20:51;9.03;;;4.33;;
11847;SDS011;5983;49.966;8.052;2023-03-03T00:23:23;8.37;;;4.97;;
11847;SDS011;5983;49.966;8.052;2023-03-03T00:25:56;7.37;;;4.33;;
11847;SDS011;5983;49.966;8.052;2023-03-03T00:28:26;6.93;;;3.93;;
11847;SDS011;5983;49.966;8.052;2023-03-03T00:30:56;10.83;;;4.20;;
11847;SDS011;5983;49.966;8.052;2023-03-03T00:33:28;5.87;;;3.93;;
11847;SDS011;5983;49.966;8.052;2023-03-03T00:35:59;7.57;;;4.30;;
11847;SDS011;5983;49.966;8.052;2023-03-03T00:38:52;7.67;;;4.70;;
11847;SDS011;5983;49.966;8.052;2023-03-03T00:41:25;6.87;;;4.80;;
11847;SDS011;5983;49.966;8.052;2023-03-03T00:43:53;7.80;;;5.00;;
11847;SDS011;5983;49.966;8.052;2023-03-03T00:46:21;6.10;;;4.00;;
11847;SDS011;5983;49.966;8.052;2023-03-03T00:48:50;5.27;;;4.13;;
11847;SDS011;5983;49.966;8.052;2023-03-03T00:51:25;8.43;;;4.53;;
11847;SDS011;5983;49.966;8.052;2023-03-03T00:53:55;7.47;;;4.47;;
11847;SDS011;5983;49.966;8.052;2023-03-03T00:56:24;7.27;;;4.10;;
11847;SDS011;5983;49.966;8.052;2023-03-03T00:58:52;9.57;;;4.40;;
11847;SDS011;5983;49.966;8.052;2023-03-03T01:01:19;8.87;;;4.77;;
11847;SDS011;5983;49.966;8.052;2023-03-03T01:03:46;5.93;;;3.60;;
11847;SDS011;5983;49.966;8.052;2023-03-03T01:06:15;6.23;;;4.00;;
11847;SDS011;5983;49.966;8.052;2023-03-03T01:08:42;6.73;;;4.07;;
11847;SDS011;5983;49.966;8.052;2023-03-03T01:11:10;5.27;;;3.73;;
11847;SDS011;5983;49.966;8.052;2023-03-03T01:13:43;7.03;;;4.10;;
11847;SDS011;5983;49.966;8.052;2023-03-03T01:16:14;8.27;;;4.10;;
11847;SDS011;5983;49.966;8.052;2023-03-03T01:18:41;6.53;;;3.70;;
11847;SDS011;5983;49.966;8.052;2023-03-03T01:21:09;6.77;;;3.87;;
11847;SDS011;5983;49.966;8.052;2023-03-03T01:23:38;9.37;;;3.90;;
11847;SDS011;5983;49.966;8.052;2023-03-03T01:26:08;6.77;;;3.57;;
11847;SDS011;5983;49.966;8.052;2023-03-03T01:28:35;5.70;;;3.83;;
11847;SDS011;5983;49.966;8.052;2023-03-03T01:31:02;7.03;;;4.50;;
11847;SDS011;5983;49.966;8.052;2023-03-03T01:33:31;6.20;;;4.17;;
11847;SDS011;5983;49.966;8.052;2023-03-03T01:36:00;5.23;;;3.47;;
11847;SDS011;5983;49.966;8.052;2023-03-03T01:38:28;7.67;;;4.47;;
11847;SDS011;5983;49.966;8.052;2023-03-03T01:40:57;5.53;;;3.87;;
11847;SDS011;5983;49.966;8.052;2023-03-03T01:43:25;5.33;;;3.77;;
11847;SDS011;5983;49.966;8.052;2023-03-03T01:49:16;6.97;;;3.97;;
11847;SDS011;5983;49.966;8.052;2023-03-03T01:51:49;7.53;;;4.23;;
11847;SDS011;5983;49.966;8.052;2023-03-03T01:54:22;7.63;;;3.97;;
11847;SDS011;5983;49.966;8.052;2023-03-03T01:56:56;5.73;;;4.30;;
11847;SDS011;5983;49.966;8.052;2023-03-03T01:59:28;9.33;;;4.30;;
11847;SDS011;5983;49.966;8.052;2023-03-03T02:02:00;7.13;;;3.90;;
11847;SDS011;5983;49.966;8.052;2023-03-03T02:04:27;8.63;;;5.13;;
11847;SDS011;5983;49.966;8.052;2023-03-03T02:06:55;6.70;;;3.90;;
11847;SDS011;5983;49.966;8.052;2023-03-03T02:09:29;6.23;;;4.27;;
11847;SDS011;5983;49.966;8.052;2023-03-03T02:12:08;6.67;;;4.10;;
11847;SDS011;5983;49.966;8.052;2023-03-03T02:14:41;5.40;;;4.20;;
11847;SDS011;5983;49.966;8.052;2023-03-03T02:17:08;5.73;;;3.80;;
11847;SDS011;5983;49.966;8.052;2023-03-03T02:19:38;9.97;;;4.87;;
11847;SDS011;5983;49.966;8.052;2023-03-03T02:22:16;6.07;;;4.43;;
11847;SDS011;5983;49.966;8.052;2023-03-03T02:24:52;8.17;;;4.33;;
11847;SDS011;5983;49.966;8.052;2023-03-03T02:27:26;6.73;;;4.00;;
11847;SDS011;5983;49.966;8.052;2023-03-03T02:29:56;6.03;;;4.23;;
11847;SDS011;5983;49.966;8.052;2023-03-03T02:32:32;6.17;;;4.17;;
11847;SDS011;5983;49.966;8.052;2023-03-03T02:34:59;7.23;;;3.90;;
11847;SDS011;5983;49.966;8.052;2023-03-03T02:37:26;6.63;;;4.37;;
11847;SDS011;5983;49.966;8.052;2023-03-03T02:39:54;6.80;;;3.97;;
11847;SDS011;5983;49.966;8.052;2023-03-03T02:42:22;7.63;;;4.10;;
11847;SDS011;5983;49.966;8.052;2023-03-03T02:44:55;7.93;;;4.33;;
11847;SDS011;5983;49.966;8.052;2023-03-03T02:47:22;6.80;;;4.40;;
11847;SDS011;5983;49.966;8.052;2023-03-03T02:49:49;6.00;;;4.03;;
11847;SDS011;5983;49.966;8.052;2023-03-03T02:52:16;6.43;;;4.30;;
11847;SDS011;5983;49.966;8.052;2023-03-03T02:54:43;7.37;;;5.03;;
11847;SDS011;5983;49.966;8.052;2023-03-03T02:57:10;6.03;;;3.83;;
11847;SDS011;5983;49.966;8.052;2023-03-03T02:59:38;10.83;;;3.60;;
11847;SDS011;5983;49.966;8.052;2023-03-03T03:02:05;5.13;;;3.70;;
11847;SDS011;5983;49.966;8.052;2023-03-03T03:04:32;6.70;;;4.37;;
11847;SDS011;5983;49.966;8.052;2023-03-03T03:06:59;6.60;;;4.30;;
11847;SDS011;5983;49.966;8.052;2023-03-03T03:09:27;5.43;;;3.77;;
11847;SDS011;5983;49.966;8.052;2023-03-03T03:11:54;6.23;;;3.67;;
11847;SDS011;5983;49.966;8.052;2023-03-03T03:14:21;8.73;;;4.53;;
11847;SDS011;5983;49.966;8.052;2023-03-03T03:16:50;6.10;;;3.90;;
11847;SDS011;5983;49.966;8.052;2023-03-03T03:19:17;6.27;;;4.27;;
11847;SDS011;5983;49.966;8.052;2023-03-03T03:21:44;7.43;;;4.10;;
11847;SDS011;5983;49.966;8.052;2023-03-03T03:24:10;6.80;;;3.97;;
11847;SDS011;5983;49.966;8.052;2023-03-03T03:26:37;6.37;;;3.90;;
11847;SDS011;5983;49.966;8.052;2023-03-03T03:29:04;6.03;;;4.00;;
11847;SDS011;5983;49.966;8.052;2023-03-03T03:31:31;6.07;;;4.03;;
11847;SDS011;5983;49.966;8.052;2023-03-03T03:33:59;8.53;;;3.73;;
11847;SDS011;5983;49.966;8.052;2023-03-03T03:36:26;5.27;;;3.67;;
11847;SDS011;5983;49.966;8.052;2023-03-03T03:38:53;6.80;;;4.00;;
11847;SDS011;5983;49.966;8.052;2023-03-03T03:41:20;5.77;;;3.90;;
11847;SDS011;5983;49.966;8.052;2023-03-03T03:43:47;6.37;;;4.00;;
11847;SDS011;5983;49.966;8.052;2023-03-03T03:46:14;9.67;;;3.90;;
11847;SDS011;5983;49.966;8.052;2023-03-03T03:48:41;5.37;;;3.70;;
11847;SDS011;5983;49.966;8.052;2023-03-03T03:51:10;6.40;;;4.53;;
11847;SDS011;5983;49.966;8.052;2023-03-03T03:53:37;6.47;;;4.20;;
11847;SDS011;5983;49.966;8.052;2023-03-03T03:56:05;5.93;;;3.83;;
11847;SDS011;5983;49.966;8.052;2023-03-03T03:58:32;9.20;;;4.07;;
11847;SDS011;5983;49.966;8.052;2023-03-03T04:01:01;7.40;;;4.50;;
11847;SDS011;5983;49.966;8.052;2023-03-03T04:03:32;6.63;;;4.07;;
11847;SDS011;5983;49.966;8.052;2023-03-03T04:05:59;6.87;;;3.87;;
11847;SDS011;5983;49.966;8.052;2023-03-03T04:08:27;5.40;;;3.37;;
11847;SDS011;5983;49.966;8.052;2023-03-03T04:10:54;10.60;;;4.60;;
11847;SDS011;5983;49.966;8.052;2023-03-03T04:13:21;10.27;;;4.17;;
11847;SDS011;5983;49.966;8.052;2023-03-03T04:15:47;6.10;;;4.00;;
11847;SDS011;5983;49.966;8.052;2023-03-03T04:18:14;6.07;;;4.20;;
11847;SDS011;5983;49.966;8.052;2023-03-03T04:20:41;7.23;;;4.27;;
11847;SDS011;5983;49.966;8.052;2023-03-03T04:23:08;7.33;;;4.40;;
11847;SDS011;5983;49.966;8.052;2023-03-03T04:25:36;8.80;;;4.83;;
11847;SDS011;5983;49.966;8.052;2023-03-03T04:28:03;6.63;;;4.30;;
11847;SDS011;5983;49.966;8.052;2023-03-03T04:30:30;7.43;;;4.43;;
11847;SDS011;5983;49.966;8.052;2023-03-03T04:32:58;9.10;;;4.50;;
11847;SDS011;5983;49.966;8.052;2023-03-03T04:35:25;8.73;;;5.27;;
11847;SDS011;5983;49.966;8.052;2023-03-03T04:37:52;8.53;;;5.00;;
11847;SDS011;5983;49.966;8.052;2023-03-03T04:40:19;8.03;;;4.67;;
11847;SDS011;5983;49.966;8.052;2023-03-03T04:42:47;6.47;;;4.27;;
11847;SDS011;5983;49.966;8.052;2023-03-03T04:45:14;6.63;;;4.30;;
11847;SDS011;5983;49.966;8.052;2023-03-03T04:47:41;6.63;;;4.20;;
11847;SDS011;5983;49.966;8.052;2023-03-03T04:50:09;8.07;;;4.97;;
11847;SDS011;5983;49.966;8.052;2023-03-03T04:52:37;11.50;;;5.37;;
11847;SDS011;5983;49.966;8.052;2023-03-03T04:55:04;9.20;;;4.87;;
11847;SDS011;5983;49.966;8.052;2023-03-03T04:57:32;7.57;;;4.27;;
11847;SDS011;5983;49.966;8.052;2023-03-03T05:00:00;6.67;;;4.07;;
11847;SDS011;5983;49.966;8.052;2023-03-03T05:02:28;5.73;;;4.13;;
11847;SDS011;5983;49.966;8.052;2023-03-03T05:04:55;10.27;;;5.37;;
11847;SDS011;5983;49.966;8.052;2023-03-03T05:07:22;8.43;;;5.20;;
11847;SDS011;5983;49.966;8.052;2023-03-03T05:09:49;6.73;;;4.17;;
11847;SDS011;5983;49.966;8.052;2023-03-03T05:12:16;6.63;;;4.40;;
11847;SDS011;5983;49.966;8.052;2023-03-03T05:14:43;8.47;;;5.30;;
11847;SDS011;5983;49.966;8.052;2023-03-03T05:17:11;12.37;;;4.53;;
11847;SDS011;5983;49.966;8.052;2023-03-03T05:19:38;7.60;;;4.23;;
11847;SDS011;5983;49.966;8.052;2023-03-03T05:22:05;6.93;;;4.50;;
11847;SDS011;5983;49.966;8.052;2023-03-03T05:24:32;7.17;;;4.63;;
11847;SDS011;5983;49.966;8.052;2023-03-03T05:26:59;8.97;;;5.00;;
11847;SDS011;5983;49.966;8.052;2023-03-03T05:29:27;13.07;;;5.23;;
11847;SDS011;5983;49.966;8.052;2023-03-03T05:31:55;8.40;;;4.87;;
11847;SDS011;5983;49.966;8.052;2023-03-03T05:34:23;9.40;;;5.00;;
11847;SDS011;5983;49.966;8.052;2023-03-03T05:36:50;8.57;;;5.43;;
11847;SDS011;5983;49.966;8.052;2023-03-03T05:39:17;8.30;;;5.43;;
11847;SDS011;5983;49.966;8.052;2023-03-03T05:41:44;8.43;;;5.00;;
11847;SDS011;5983;49.966;8.052;2023-03-03T05:44:11;8.87;;;4.83;;
11847;SDS011;5983;49.966;8.052;2023-03-03T05:46:38;7.63;;;4.73;;
11847;SDS011;5983;49.966;8.052;2023-03-03T05:49:06;9.80;;;5.03;;
11847;SDS011;5983;49.966;8.052;2023-03-03T05:51:35;6.70;;;4.77;;
11847;SDS011;5983;49.966;8.052;2023-03-03T05:54:01;7.57;;;5.30;;
11847;SDS011;5983;49.966;8.052;2023-03-03T05:56:28;7.37;;;5.07;;
11847;SDS011;5983;49.966;8.052;2023-03-03T05:58:55;7.67;;;5.07;;
11847;SDS011;5983;49.966;8.052;2023-03-03T06:01:22;10.23;;;5.97;;
11847;SDS011;5983;49.966;8.052;2023-03-03T06:03:49;8.43;;;5.43;;
11847;SDS011;5983;49.966;8.052;2023-03-03T06:06:16;7.97;;;5.37;;
11847;SDS011;5983;49.966;8.052;2023-03-03T06:08:44;7.20;;;5.30;;
11847;SDS011;5983;49.966;8.052;2023-03-03T06:11:14;8.67;;;5.10;;
11847;SDS011;5983;49.966;8.052;2023-03-03T06:13:43;9.77;;;5.30;;
11847;SDS011;5983;49.966;8.052;2023-03-03T06:16:10;8.67;;;6.00;;
11847;SDS011;5983;49.966;8.052;2023-03-03T06:18:37;9.63;;;4.90;;
11847;SDS011;5983;49.966;8.052;2023-03-03T06:21:04;10.37;;;5.70;;
11847;SDS011;5983;49.966;8.052;2023-03-03T06:23:31;10.00;;;5.60;;
11847;SDS011;5983;49.966;8.052;2023-03-03T06:25:59;9.20;;;5.83;;
11847;SDS011;5983;49.966;8.052;2023-03-03T06:28:26;7.30;;;5.20;;
11847;SDS011;5983;49.966;8.052;2023-03-03T06:30:53;10.67;;;6.10;;
11847;SDS011;5983;49.966;8.052;2023-03-03T06:33:20;8.20;;;5.23;;
11847;SDS011;5983;49.966;8.052;2023-03-03T06:35:48;10.33;;;5.73;;
11847;SDS011;5983;49.966;8.052;2023-03-03T06:38:15;9.17;;;5.40;;
11847;SDS011;5983;49.966;8.052;2023-03-03T06:40:43;10.13;;;5.93;;
11847;SDS011;5983;49.966;8.052;2023-03-03T06:43:12;8.87;;;5.50;;
11847;SDS011;5983;49.966;8.052;2023-03-03T06:45:39;7.83;;;5.50;;
11847;SDS011;5983;49.966;8.052;2023-03-03T06:48:07;8.97;;;5.53;;
11847;SDS011;5983;49.966;8.052;2023-03-03T06:50:34;11.17;;;5.77;;
11847;SDS011;5983;49.966;8.052;2023-03-03T06:53:03;9.30;;;5.57;;
11847;SDS011;5983;49.966;8.052;2023-03-03T06:55:37;9.37;;;5.03;;
11847;SDS011;5983;49.966;8.052;2023-03-03T06:58:07;8.87;;;5.43;;
11847;SDS011;5983;49.966;8.052;2023-03-03T07:00:40;12.80;;;5.87;;
11847;SDS011;5983;49.966;8.052;2023-03-03T07:03:11;9.10;;;5.67;;
11847;SDS011;5983;49.966;8.052;2023-03-03T07:05:41;9.30;;;6.10;;
11847;SDS011;5983;49.966;8.052;2023-03-03T07:08:10;13.93;;;6.40;;
11847;SDS011;5983;49.966;8.052;2023-03-03T07:10:41;12.30;;;6.83;;
11847;SDS011;5983;49.966;8.052;2023-03-03T07:13:22;9.13;;;6.40;;
11847;SDS011;5983;49.966;8.052;2023-03-03T07:15:52;10.83;;;6.10;;
11847;SDS011;5983;49.966;8.052;2023-03-03T07:18:28;12.97;;;7.43;;
11847;SDS011;5983;49.966;8.052;2023-03-03T07:21:05;9.90;;;6.20;;
11847;SDS011;5983;49.966;8.052;2023-03-03T07:23:42;11.37;;;6.70;;
11847;SDS011;5983;49.966;8.052;2023-03-03T07:26:11;10.80;;;6.30;;
11847;SDS011;5983;49.966;8.052;2023-03-03T07:28:42;11.60;;;7.00;;
11847;SDS011;5983;49.966;8.052;2023-03-03T07:31:28;11.63;;;6.90;;
11847;SDS011;5983;49.966;8.052;2023-03-03T07:34:01;10.37;;;6.50;;
11847;SDS011;5983;49.966;8.052;2023-03-03T07:36:41;9.57;;;6.43;;
11847;SDS011;5983;49.966;8.052;2023-03-03T07:39:15;12.10;;;6.37;;
11847;SDS011;5983;49.966;8.052;2023-03-03T07:41:59;9.47;;;6.70;;
11847;SDS011;5983;49.966;8.052;2023-03-03T07:44:44;10.75;;;7.75;;
11847;SDS011;5983;49.966;8.052;2023-03-03T07:47:17;9.67;;;6.87;;
11847;SDS011;5983;49.966;8.052;2023-03-03T07:49:47;8.73;;;6.83;;
11847;SDS011;5983;49.966;8.052;2023-03-03T07:52:18;12.03;;;7.63;;
11847;SDS011;5983;49.966;8.052;2023-03-03T07:54:52;12.37;;;7.67;;
11847;SDS011;5983;49.966;8.052;2023-03-03T07:57:22;11.43;;;7.40;;
11847;SDS011;5983;49.966;8.052;2023-03-03T07:59:54;10.30;;;7.40;;
11847;SDS011;5983;49.966;8.052;2023-03-03T08:02:32;12.63;;;8.33;;
11847;SDS011;5983;49.966;8.052;2023-03-03T08:07:57;10.20;;;7.23;;
11847;SDS011;5983;49.966;8.052;2023-03-03T08:10:46;13.27;;;8.17;;
11847;SDS011;5983;49.966;8.052;2023-03-03T08:13:15;13.87;;;8.07;;
11847;SDS011;5983;49.966;8.052;2023-03-03T08:15:47;11.10;;;8.17;;
11847;SDS011;5983;49.966;8.052;2023-03-03T08:18:18;10.27;;;7.97;;
11847;SDS011;5983;49.966;8.052;2023-03-03T08:20:51;9.97;;;8.40;;
11847;SDS011;5983;49.966;8.052;2023-03-03T08:23:21;11.70;;;8.07;;
11847;SDS011;5983;49.966;8.052;2023-03-03T08:25:48;13.30;;;8.40;;
11847;SDS011;5983;49.966;8.052;2023-03-03T08:28:17;10.03;;;7.60;;
11847;SDS011;5983;49.966;8.052;2023-03-03T08:30:46;10.53;;;7.43;;
11847;SDS011;5983;49.966;8.052;2023-03-03T08:33:15;9.47;;;7.57;;
11847;SDS011;5983;49.966;8.052;2023-03-03T08:35:43;13.63;;;8.10;;
11847;SDS011;5983;49.966;8.052;2023-03-03T08:38:11;9.63;;;7.37;;
11847;SDS011;5983;49.966;8.052;2023-03-03T08:40:40;12.07;;;8.80;;
11847;SDS011;5983;49.966;8.052;2023-03-03T08:43:08;15.13;;;9.17;;
11847;SDS011;5983;49.966;8.052;2023-03-03T08:45:38;21.40;;;8.97;;
11847;SDS011;5983;49.966;8.052;2023-03-03T08:48:06;12.60;;;9.17;;
11847;SDS011;5983;49.966;8.052;2023-03-03T08:50:33;10.93;;;8.97;;
11847;SDS011;5983;49.966;8.052;2023-03-03T08:53:00;15.90;;;9.63;;
11847;SDS011;5983;49.966;8.052;2023-03-03T08:55:27;11.57;;;9.53;;
11847;SDS011;5983;49.966;8.052;2023-03-03T08:57:54;12.40;;;9.30;;
11847;SDS011;5983;49.966;8.052;2023-03-03T09:00:21;11.60;;;9.43;;
11847;SDS011;5983;49.966;8.052;2023-03-03T09:02:49;13.17;;;10.20;;
11847;SDS011;5983;49.966;8.052;2023-03-03T09:05:18;11.07;;;9.43;;
11847;SDS011;5983;49.966;8.052;2023-03-03T09:07:47;10.27;;;9.13;;
11847;SDS011;5983;49.966;8.052;2023-03-03T09:10:16;12.40;;;9.93;;
11847;SDS011;5983;49.966;8.052;2023-03-03T09:12:53;12.30;;;10.77;;
11847;SDS011;5983;49.966;8.052;2023-03-03T09:15:23;11.97;;;10.40;;
11847;SDS011;5983;49.966;8.052;2023-03-03T09:17:53;12.97;;;9.83;;
11847;SDS011;5983;49.966;8.052;2023-03-03T09:20:29;12.60;;;10.80;;
11847;SDS011;5983;49.966;8.052;2023-03-03T09:23:15;12.30;;;9.10;;
11847;SDS011;5983;49.966;8.052;2023-03-03T09:28:52;15.07;;;10.93;;
11847;SDS011;5983;49.966;8.052;2023-03-03T09:31:24;11.77;;;9.93;;
11847;SDS011;5983;49.966;8.052;2023-03-03T09:33:56;12.27;;;10.80;;
11847;SDS011;5983;49.966;8.052;2023-03-03T09:36:26;11.03;;;9.77;;
11847;SDS011;5983;49.966;8.052;2023-03-03T09:38:55;14.07;;;10.00;;
11847;SDS011;5983;49.966;8.052;2023-03-03T09:41:33;9.50;;;8.37;;
11847;SDS011;5983;49.966;8.052;2023-03-03T09:44:48;10.50;;;8.70;;
11847;SDS011;5983;49.966;8.052;2023-03-03T09:48:21;9.40;;;8.50;;
11847;SDS011;5983;49.966;8.052;2023-03-03T09:51:33;13.27;;;9.40;;
11847;SDS011;5983;49.966;8.052;2023-03-03T09:54:25;10.70;;;9.47;;
11847;SDS011;5983;49.966;8.052;2023-03-03T09:57:15;9.63;;;8.67;;
11847;SDS011;5983;49.966;8.052;2023-03-03T09:59:56;10.30;;;8.23;;
11847;SDS011;5983;49.966;8.052;2023-03-03T10:02:47;11.33;;;9.43;;
11847;SDS011;5983;49.966;8.052;2023-03-03T10:05:38;8.43;;;7.63;;
11847;SDS011;5983;49.966;8.052;2023-03-03T10:08:22;9.10;;;8.17;;
11847;SDS011;5983;49.966;8.052;2023-03-03T10:11:08;10.07;;;9.07;;
11847;SDS011;5983;49.966;8.052;2023-03-03T10:13:52;10.65;;;8.82;;
11847;SDS011;5983;49.966;8.052;2023-03-03T10:16:56;9.80;;;8.80;;
11847;SDS011;5983;49.966;8.052;2023-03-03T10:19:43;11.00;;;9.75;;
11847;SDS011;5983;49.966;8.052;2023-03-03T10:22:23;8.93;;;8.02;;
11847;SDS011;5983;49.966;8.052;2023-03-03T10:25:12;9.00;;;8.10;;
11847;SDS011;5983;49.966;8.052;2023-03-03T10:28:14;10.48;;;9.48;;
11847;SDS011;5983;49.966;8.052;2023-03-03T10:31:00;11.93;;;9.30;;
11847;SDS011;5983;49.966;8.052;2023-03-03T10:33:42;11.18;;;10.07;;
11847;SDS011;5983;49.966;8.052;2023-03-03T10:36:24;11.57;;;9.65;;
11847;SDS011;5983;49.966;8.052;2023-03-03T10:39:10;11.48;;;9.25;;
11847;SDS011;5983;49.966;8.052;2023-03-03T10:42:04;9.95;;;9.05;;
11847;SDS011;5983;49.966;8.052;2023-03-03T10:44:55;10.13;;;8.50;;
11847;SDS011;5983;49.966;8.052;2023-03-03T10:47:57;9.50;;;8.60;;
11847;SDS011;5983;49.966;8.052;2023-03-03T10:50:44;9.82;;;8.70;;
11847;SDS011;5983;49.966;8.052;2023-03-03T10:53:24;10.40;;;9.40;;
11847;SDS011;5983;49.966;8.052;2023-03-03T10:56:04;8.93;;;8.13;;
11847;SDS011;5983;49.966;8.052;2023-03-03T10:58:56;10.85;;;8.43;;
11847;SDS011;5983;49.966;8.052;2023-03-03T11:01:44;10.43;;;9.40;;
11847;SDS011;5983;49.966;8.052;2023-03-03T11:04:27;9.30;;;8.05;;
11847;SDS011;5983;49.966;8.052;2023-03-03T11:07:13;9.93;;;8.93;;
11847;SDS011;5983;49.966;8.052;2023-03-03T11:09:51;9.77;;;8.70;;
11847;SDS011;5983;49.966;8.052;2023-03-03T11:12:37;10.63;;;9.00;;
11847;SDS011;5983;49.966;8.052;2023-03-03T11:15:23;9.73;;;7.75;;
11847;SDS011;5983;49.966;8.052;2023-03-03T11:18:12;10.60;;;9.00;;
11847;SDS011;5983;49.966;8.052;2023-03-03T11:20:51;9.75;;;8.63;;
11847;SDS011;5983;49.966;8.052;2023-03-03T11:26:42;9.02;;;8.00;;
11847;SDS011;5983;49.966;8.052;2023-03-03T11:29:44;10.15;;;9.15;;
11847;SDS011;5983;49.966;8.052;2023-03-03T11:32:35;8.45;;;7.65;;
11847;SDS011;5983;49.966;8.052;2023-03-03T11:35:18;8.85;;;7.95;;
11847;SDS011;5983;49.966;8.052;2023-03-03T11:37:54;10.35;;;9.35;;
11847;SDS011;5983;49.966;8.052;2023-03-03T11:40:39;10.98;;;9.45;;
11847;SDS011;5983;49.966;8.052;2023-03-03T11:43:15;11.43;;;9.05;;
11847;SDS011;5983;49.966;8.052;2023-03-03T11:45:52;8.95;;;8.05;;
11847;SDS011;5983;49.966;8.052;2023-03-03T11:48:29;8.48;;;7.53;;
11847;SDS011;5983;49.966;8.052;2023-03-03T11:51:07;9.82;;;8.82;;
11847;SDS011;5983;49.966;8.052;2023-03-03T11:53:44;7.72;;;6.97;;
11847;SDS011;5983;49.966;8.052;2023-03-03T11:56:23;10.15;;;8.38;;
11847;SDS011;5983;49.966;8.052;2023-03-03T11:59:04;8.00;;;7.22;;
11847;SDS011;5983;49.966;8.052;2023-03-03T12:02:19;7.22;;;6.30;;
11847;SDS011;5983;49.966;8.052;2023-03-03T12:05:05;7.65;;;6.88;;
11847;SDS011;5983;49.966;8.052;2023-03-03T12:07:40;7.88;;;7.07;;
11847;SDS011;5983;49.966;8.052;2023-03-03T12:10:22;7.40;;;6.60;;
11847;SDS011;5983;49.966;8.052;2023-03-03T12:12:58;8.40;;;7.60;;
11847;SDS011;5983;49.966;8.052;2023-03-03T12:15:32;11.45;;;8.00;;
11847;SDS011;5983;49.966;8.052;2023-03-03T12:18:14;7.60;;;6.60;;
11847;SDS011;5983;49.966;8.052;2023-03-03T12:21:26;8.77;;;7.25;;
11847;SDS011;5983;49.966;8.052;2023-03-03T12:24:15;6.55;;;5.95;;
11847;SDS011;5983;49.966;8.052;2023-03-03T12:27:02;7.35;;;6.35;;
11847;SDS011;5983;49.966;8.052;2023-03-03T12:29:46;6.53;;;5.93;;
11847;SDS011;5983;49.966;8.052;2023-03-03T12:32:28;6.88;;;6.18;;
11847;SDS011;5983;49.966;8.052;2023-03-03T12:35:16;6.47;;;5.95;;
11847;SDS011;5983;49.966;8.052;2023-03-03T12:37:56;7.22;;;6.53;;
11847;SDS011;5983;49.966;8.052;2023-03-03T12:40:43;7.10;;;6.43;;
11847;SDS011;5983;49.966;8.052;2023-03-03T12:43:22;6.78;;;5.53;;
11847;SDS011;5983;49.966;8.052;2023-03-03T12:46:13;9.40;;;6.72;;
11847;SDS011;5983;49.966;8.052;2023-03-03T12:48:48;7.18;;;6.47;;
11847;SDS011;5983;49.966;8.052;2023-03-03T12:51:17;6.38;;;5.75;;
11847;SDS011;5983;49.966;8.052;2023-03-03T12:54:15;8.32;;;7.43;;
11847;SDS011;5983;49.966;8.052;2023-03-03T12:57:18;6.40;;;5.78;;
11847;SDS011;5983;49.966;8.052;2023-03-03T13:00:02;6.45;;;5.85;;
11847;SDS011;5983;49.966;8.052;2023-03-03T13:02:52;6.50;;;5.65;;
11847;SDS011;5983;49.966;8.052;2023-03-03T13:05:32;6.90;;;6.10;;
11847;SDS011;5983;49.966;8.052;2023-03-03T13:08:16;6.68;;;6.05;;
11847;SDS011;5983;49.966;8.052;2023-03-03T13:11:03;7.00;;;6.40;;
11847;SDS011;5983;49.966;8.052;2023-03-03T13:13:49;6.85;;;6.05;;
11847;SDS011;5983;49.966;8.052;2023-03-03T13:16:24;6.82;;;6.00;;
11847;SDS011;5983;49.966;8.052;2023-03-03T13:18:59;6.47;;;5.88;;
11847;SDS011;5983;49.966;8.052;2023-03-03T13:21:34;6.28;;;5.68;;
11847;SDS011;5983;49.966;8.052;2023-03-03T13:24:10;8.50;;;7.15;;
11847;SDS011;5983;49.966;8.052;2023-03-03T13:26:48;6.60;;;6.00;;
11847;SDS011;5983;49.966;8.052;2023-03-03T13:29:24;6.13;;;5.55;;
11847;SDS011;5983;49.966;8.052;2023-03-03T13:31:56;7.50;;;6.32;;
11847;SDS011;5983;49.966;8.052;2023-03-03T13:34:31;7.38;;;6.03;;
11847;SDS011;5983;49.966;8.052;2023-03-03T13:37:12;10.60;;;7.18;;
11847;SDS011;5983;49.966;8.052;2023-03-03T13:39:50;6.68;;;5.63;;
11847;SDS011;5983;49.966;8.052;2023-03-03T13:42:26;6.57;;;5.65;;
11847;SDS011;5983;49.966;8.052;2023-03-03T13:45:06;7.13;;;6.35;;
11847;SDS011;5983;49.966;8.052;2023-03-03T13:47:45;7.70;;;6.32;;
11847;SDS011;5983;49.966;8.052;2023-03-03T13:50:25;11.52;;;6.32;;
11847;SDS011;5983;49.966;8.052;2023-03-03T13:53:04;5.97;;;5.38;;
11847;SDS011;5983;49.966;8.052;2023-03-03T13:55:54;7.70;;;6.77;;
11847;SDS011;5983;49.966;8.052;2023-03-03T13:58:35;6.83;;;6.13;;
11847;SDS011;5983;49.966;8.052;2023-03-03T14:01:16;6.40;;;4.47;;
11847;SDS011;5983;49.966;8.052;2023-03-03T14:03:58;5.30;;;4.80;;
11847;SDS011;5983;49.966;8.052;2023-03-03T14:06:34;5.87;;;5.07;;
11847;SDS011;5983;49.966;8.052;2023-03-03T14:09:08;5.63;;;4.93;;
11847;SDS011;5983;49.966;8.052;2023-03-03T14:11:48;5.47;;;4.67;;
11847;SDS011;5983;49.966;8.052;2023-03-03T14:14:34;9.53;;;6.07;;
11847;SDS011;5983;49.966;8.052;2023-03-03T14:17:16;5.70;;;4.70;;
11847;SDS011;5983;49.966;8.052;2023-03-03T14:19:57;7.30;;;6.53;;
11847;SDS011;5983;49.966;8.052;2023-03-03T14:22:39;6.10;;;5.50;;
11847;SDS011;5983;49.966;8.052;2023-03-03T14:25:16;7.03;;;5.80;;
11847;SDS011;5983;49.966;8.052;2023-03-03T14:27:53;6.20;;;5.60;;
11847;SDS011;5983;49.966;8.052;2023-03-03T14:30:32;6.13;;;5.53;;
11847;SDS011;5983;49.966;8.052;2023-03-03T14:33:13;6.20;;;5.07;;
11847;SDS011;5983;49.966;8.052;2023-03-03T14:35:48;8.50;;;5.93;;
11847;SDS011;5983;49.966;8.052;2023-03-03T14:38:35;6.93;;;5.33;;
11847;SDS011;5983;49.966;8.052;2023-03-03T14:41:11;5.67;;;5.07;;
11847;SDS011;5983;49.966;8.052;2023-03-03T14:43:58;6.83;;;4.80;;
11847;SDS011;5983;49.966;8.052;2023-03-03T14:46:35;8.00;;;5.03;;
11847;SDS011;5983;49.966;8.052;2023-03-03T14:49:10;5.03;;;4.30;;
11847;SDS011;5983;49.966;8.052;2023-03-03T14:51:53;8.67;;;5.47;;
11847;SDS011;5983;49.966;8.052;2023-03-03T14:54:29;6.97;;;5.00;;
11847;SDS011;5983;49.966;8.052;2023-03-03T14:57:06;5.47;;;3.87;;
11847;SDS011;5983;49.966;8.052;2023-03-03T14:59:44;4.33;;;3.53;;
11847;SDS011;5983;49.966;8.052;2023-03-03T15:02:27;5.03;;;3.20;;
11847;SDS011;5983;49.966;8.052;2023-03-03T15:05:16;3.70;;;3.23;;
11847;SDS011;5983;49.966;8.052;2023-03-03T15:07:48;3.73;;;3.30;;
11847;SDS011;5983;49.966;8.052;2023-03-03T15:10:26;4.17;;;3.50;;
11847;SDS011;5983;49.966;8.052;2023-03-03T15:12:56;11.07;;;3.27;;
11847;SDS011;5983;49.966;8.052;2023-03-03T15:15:24;7.00;;;3.80;;
11847;SDS011;5983;49.966;8.052;2023-03-03T15:18:08;4.23;;;3.33;;
11847;SDS011;5983;49.966;8.052;2023-03-03T15:20:40;4.33;;;2.90;;
11847;SDS011;5983;49.966;8.052;2023-03-03T15:23:16;3.83;;;2.70;;
11847;SDS011;5983;49.966;8.052;2023-03-03T15:26:05;3.73;;;2.87;;
11847;SDS011;5983;49.966;8.052;2023-03-03T15:28:44;4.40;;;2.83;;
11847;SDS011;5983;49.966;8.052;2023-03-03T15:31:27;4.33;;;3.10;;
11847;SDS011;5983;49.966;8.052;2023-03-03T15:34:14;3.40;;;2.80;;
11847;SDS011;5983;49.966;8.052;2023-03-03T15:37:05;3.27;;;2.63;;
11847;SDS011;5983;49.966;8.052;2023-03-03T15:39:51;4.83;;;2.80;;
11847;SDS011;5983;49.966;8.052;2023-03-03T15:42:26;2.57;;;2.10;;
11847;SDS011;5983;49.966;8.052;2023-03-03T15:45:01;3.70;;;2.70;;
11847;SDS011;5983;49.966;8.052;2023-03-03T15:47:44;3.17;;;2.27;;
11847;SDS011;5983;49.966;8.052;2023-03-03T15:50:34;5.30;;;3.40;;
11847;SDS011;5983;49.966;8.052;2023-03-03T15:53:17;5.23;;;3.37;;
11847;SDS011;5983;49.966;8.052;2023-03-03T15:56:03;5.33;;;2.90;;